Time;durP1;ratioP1;P1;durP2;ratioP2;P2;SDS_P1;SDS_P2;PMS_P1;PMS_P2;Temp;Humidity;BMP_temperature;BMP_pressure;BME280_temperature;BME280_humidity;BME280_pressure;Samples;Min_cycle;Max_cycle;Signal;HPM_P1;HPM_P2
2024/03/16 00:00:57;;;;;;;1.08;1.08;;;;;;;13.82;67.92;101014.66;5085473;28;20115;-77
2024/03/16 00:03:23;;;;;;;0.17;0.17;;;;;;;13.73;68.33;101030.00;5086487;28;20086;-78
2024/03/16 00:05:49;;;;;;;0.10;0.10;;;;;;;13.66;67.99;101031.09;5089454;28;20028;-77
2024/03/16 00:08:16;;;;;;;0.20;0.20;;;;;;;13.69;67.89;101046.97;5087635;28;20020;-77
2024/03/16 00:10:43;;;;;;;0.10;0.10;;;;;;;13.47;68.91;101041.44;5085251;28;20043;-79
2024/03/16 00:13:09;;;;;;;0.30;0.30;;;;;;;13.43;69.59;101034.44;5081275;28;20021;-79
2024/03/16 00:15:35;;;;;;;5.82;1.65;;;;;;;13.37;69.56;101043.47;5092053;28;20024;-77
2024/03/16 00:18:01;;;;;;;0.10;0.10;;;;;;;13.27;70.32;101050.81;5091461;28;20039;-78
2024/03/16 00:20:28;;;;;;;0.20;0.20;;;;;;;13.25;70.52;101047.31;5093019;28;20040;-78
2024/03/16 00:22:54;;;;;;;0.10;0.10;;;;;;;13.33;70.13;101038.25;5092626;28;20028;-75
2024/03/16 00:25:21;;;;;;;0.15;0.15;;;;;;;13.29;70.44;101044.59;5091317;28;20108;-76
2024/03/16 00:27:49;;;;;;;0.20;0.20;;;;;;;13.42;69.74;101044.22;5090424;28;20032;-76
2024/03/16 00:30:15;;;;;;;1.38;1.38;;;;;;;13.32;70.64;101057.78;5084626;28;20438;-77
2024/03/16 00:32:41;;;;;;;0.10;0.10;;;;;;;13.23;70.90;101065.13;5091296;28;20135;-76
2024/03/16 00:35:08;;;;;;;2.15;1.75;;;;;;;13.24;70.99;101061.53;5091310;28;20027;-76
2024/03/16 00:37:34;;;;;;;0.10;0.10;;;;;;;13.15;70.98;101074.25;5083524;28;20157;-76
2024/03/16 00:40:00;;;;;;;0.10;0.10;;;;;;;13.01;71.50;101083.44;5083241;28;20036;-78
2024/03/16 00:42:26;;;;;;;1.90;1.02;;;;;;;13.10;71.55;101079.66;5103875;28;20522;-76
2024/03/16 00:44:52;;;;;;;0.10;0.10;;;;;;;13.14;71.81;101076.00;5097457;28;20059;-76
2024/03/16 00:47:19;;;;;;;0.10;0.10;;;;;;;13.05;71.81;101077.13;5089709;28;20032;-77
2024/03/16 00:49:45;;;;;;;0.20;0.20;;;;;;;13.09;71.50;101077.91;5086608;28;20037;-75
2024/03/16 00:52:11;;;;;;;1.08;1.08;;;;;;;13.01;71.65;101082.56;5088580;28;20032;-76
2024/03/16 00:54:38;;;;;;;0.10;0.10;;;;;;;13.04;71.57;101083.34;5092090;28;20462;-77
2024/03/16 00:57:04;;;;;;;0.20;0.20;;;;;;;12.96;71.19;101093.34;5090339;28;20411;-78
2024/03/16 00:59:30;;;;;;;0.10;0.10;;;;;;;12.94;70.67;101111.13;5088737;28;20077;-78
2024/03/16 01:01:57;;;;;;;0.75;0.75;;;;;;;13.03;70.19;101096.69;5086022;28;20035;-77
2024/03/16 01:04:24;;;;;;;0.60;0.60;;;;;;;12.98;69.98;101109.25;5084027;28;20047;-76
2024/03/16 01:06:50;;;;;;;0.10;0.10;;;;;;;12.96;69.58;101117.28;5079772;28;20500;-77
2024/03/16 01:09:16;;;;;;;0.10;0.10;;;;;;;12.90;69.31;101120.94;5083254;28;20024;-75
2024/03/16 01:11:43;;;;;;;0.10;0.10;;;;;;;12.83;68.33;101137.97;5087136;28;20499;-78
2024/03/16 01:14:09;;;;;;;0.73;0.73;;;;;;;12.74;68.51;101140.88;5086501;28;20085;-77
2024/03/16 01:16:35;;;;;;;0.10;0.10;;;;;;;12.77;68.35;101140.78;5084329;28;20052;-77
2024/03/16 01:19:02;;;;;;;0.10;0.10;;;;;;;12.70;68.62;101141.88;5089871;28;20031;-74
2024/03/16 01:21:28;;;;;;;0.98;0.98;;;;;;;12.72;67.86;101150.66;5090700;28;20442;-77
2024/03/16 01:23:54;;;;;;;0.10;0.10;;;;;;;12.66;67.59;101153.47;5088663;28;20040;-78
2024/03/16 01:26:20;;;;;;;0.13;0.13;;;;;;;12.54;67.65;101178.56;5080941;28;20560;-77
2024/03/16 01:28:47;;;;;;;0.10;0.10;;;;;;;12.30;66.97;101176.41;5086236;28;20036;-77
2024/03/16 01:31:13;;;;;;;0.25;0.25;;;;;;;12.38;66.49;101180.69;5081392;28;20572;-77
2024/03/16 01:33:39;;;;;;;0.10;0.10;;;;;;;12.39;65.91;101182.44;5087803;28;20110;-77
2024/03/16 01:36:06;;;;;;;0.13;0.13;;;;;;;12.28;66.53;101194.16;5090600;28;20039;-77
2024/03/16 01:38:32;;;;;;;0.10;0.10;;;;;;;12.05;67.71;101199.06;5085998;28;20040;-78
2024/03/16 01:40:58;;;;;;;0.20;0.20;;;;;;;12.01;67.81;101203.56;5094291;28;20032;-78
2024/03/16 01:43:25;;;;;;;0.10;0.10;;;;;;;11.86;69.32;101210.03;5090024;28;20087;-77
2024/03/16 01:45:51;;;;;;;0.10;0.10;;;;;;;11.84;69.04;101206.53;5094860;28;20040;-78
2024/03/16 01:48:17;;;;;;;0.10;0.10;;;;;;;11.68;69.10;101207.75;5101013;28;20083;-76
2024/03/16 01:50:44;;;;;;;0.28;0.28;;;;;;;11.56;69.48;101211.50;5104064;28;20042;-78
2024/03/16 01:53:10;;;;;;;9.75;1.63;;;;;;;11.54;70.09;101208.88;5101260;28;20028;-77
2024/03/16 01:55:38;;;;;;;0.10;0.10;;;;;;;11.48;70.46;101208.97;5086207;28;20403;-77
2024/03/16 01:58:06;;;;;;;0.10;0.10;;;;;;;11.41;71.11;101208.19;5084953;28;20087;-77
2024/03/16 02:00:33;;;;;;;0.10;0.10;;;;;;;11.39;70.44;101222.38;5085449;28;20024;-78
2024/03/16 02:03:00;;;;;;;0.10;0.10;;;;;;;11.30;71.09;101221.66;5088873;28;20032;-78
2024/03/16 02:05:26;;;;;;;0.10;0.10;;;;;;;11.32;71.10;101225.16;5092576;28;20047;-78
2024/03/16 02:07:52;;;;;;;0.10;0.10;;;;;;;11.28;71.83;101234.06;5088634;28;20055;-77
2024/03/16 02:10:19;;;;;;;0.10;0.10;;;;;;;11.29;71.06;101235.81;5085568;28;20054;-77
2024/03/16 02:12:45;;;;;;;0.10;0.10;;;;;;;11.23;71.92;101233.28;5085801;28;20044;-78
2024/03/16 02:15:13;;;;;;;0.10;0.10;;;;;;;11.17;72.05;101233.38;5094588;28;20080;-76
2024/03/16 02:17:40;;;;;;;0.10;0.10;;;;;;;11.14;71.89;101246.66;5094037;28;20036;-74
2024/03/16 02:20:14;;;;;;;0.10;0.10;;;;;;;11.16;71.88;101244.88;5101043;28;20173;-76
2024/03/16 02:22:42;;;;;;;0.15;0.15;;;;;;;11.23;72.01;101250.97;5094640;28;20586;-75
2024/03/16 02:25:10;;;;;;;0.10;0.10;;;;;;;11.07;73.08;101253.00;5094806;28;20046;-77
2024/03/16 02:27:37;;;;;;;0.10;0.10;;;;;;;11.14;73.05;101251.97;5091417;28;20051;-75
2024/03/16 02:30:05;;;;;;;0.10;0.10;;;;;;;11.08;73.60;101260.91;5092214;28;20020;-77
2024/03/16 02:32:31;;;;;;;5.68;1.45;;;;;;;11.05;73.33;101260.09;5095855;28;20056;-76
2024/03/16 02:34:58;;;;;;;0.10;0.10;;;;;;;11.04;73.00;101277.78;5083423;28;20496;-78
2024/03/16 02:37:24;;;;;;;0.10;0.10;;;;;;;10.87;73.49;101264.75;5083323;28;20085;-77
2024/03/16 02:39:50;;;;;;;0.10;0.10;;;;;;;10.88;73.75;101270.94;5085786;28;20502;-77
2024/03/16 02:42:16;;;;;;;0.10;0.10;;;;;;;10.90;72.89;101269.13;5084099;28;20643;-77
2024/03/16 02:44:43;;;;;;;0.10;0.10;;;;;;;10.94;72.91;101271.72;5083382;28;20043;-76
2024/03/16 02:47:10;;;;;;;0.10;0.10;;;;;;;10.94;73.02;101276.13;5086495;28;20032;-77
2024/03/16 02:49:36;;;;;;;0.10;0.10;;;;;;;10.93;72.90;101288.53;5082589;28;20028;-77
2024/03/16 02:52:03;;;;;;;0.10;0.10;;;;;;;10.95;73.05;101294.69;5082126;28;20032;-77
2024/03/16 02:54:30;;;;;;;0.22;0.22;;;;;;;10.86;73.75;101294.81;5103375;28;20039;-75
2024/03/16 02:56:56;;;;;;;0.20;0.20;;;;;;;10.87;73.81;101301.00;5099122;28;20020;-75
2024/03/16 02:59:23;;;;;;;0.20;0.20;;;;;;;10.77;74.21;101322.31;5086709;28;20040;-75
2024/03/16 03:01:49;;;;;;;0.10;0.10;;;;;;;10.77;73.94;101327.63;5082982;28;20111;-76
2024/03/16 03:04:15;;;;;;;0.10;0.10;;;;;;;10.85;73.07;101322.22;5085523;28;20027;-77
2024/03/16 03:06:42;;;;;;;0.10;0.10;;;;;;;10.87;72.88;101328.38;5083952;28;20953;-77
2024/03/16 03:09:09;;;;;;;0.00;0.00;;;;;;;10.73;73.14;101320.63;5082853;28;20028;-77
2024/03/16 03:11:37;;;;;;;0.00;0.00;;;;;;;10.73;73.39;101338.28;5087646;28;20107;-77
2024/03/16 03:14:04;;;;;;;0.10;0.10;;;;;;;10.76;73.02;101347.06;5087401;28;20525;-75
2024/03/16 03:16:30;;;;;;;0.08;0.08;;;;;;;10.63;72.93;101349.00;5080417;28;20773;-77
2024/03/16 03:18:56;;;;;;;0.10;0.10;;;;;;;10.69;72.74;101342.75;5087967;28;20445;-77
2024/03/16 03:21:23;;;;;;;0.10;0.10;;;;;;;10.66;73.16;101354.25;5085830;28;20035;-77
2024/03/16 03:23:49;;;;;;;0.10;0.10;;;;;;;10.61;72.97;101353.44;5083242;28;20028;-77
2024/03/16 03:26:16;;;;;;;0.10;0.10;;;;;;;10.58;73.49;101356.13;5081782;28;20033;-76
2024/03/16 03:28:42;;;;;;;0.10;0.10;;;;;;;10.57;73.14;101351.72;5085035;28;20111;-77
2024/03/16 03:31:10;;;;;;;0.10;0.10;;;;;;;10.59;73.53;101363.19;5086245;28;20033;-78
2024/03/16 03:33:36;;;;;;;0.20;0.20;;;;;;;10.55;73.60;101380.00;5085020;28;20038;-77
2024/03/16 03:36:04;;;;;;;0.10;0.10;;;;;;;10.58;73.62;101364.09;5084141;28;20028;-77
2024/03/16 03:38:30;;;;;;;0.10;0.10;;;;;;;10.56;73.66;101379.13;5083944;28;21266;-77
2024/03/16 03:40:57;;;;;;;0.10;0.10;;;;;;;10.54;73.23;101393.28;5085390;28;20511;-78
2024/03/16 03:43:24;;;;;;;0.10;0.10;;;;;;;10.47;73.69;101395.13;5085274;28;20032;-78
2024/03/16 03:45:52;;;;;;;0.10;0.10;;;;;;;10.48;73.61;101404.81;5083297;28;20047;-75
2024/03/16 03:50:59;;;;;;;0.10;0.10;;;;;;;10.44;73.82;101408.38;5123988;27;20373;-78
2024/03/16 03:53:28;;;;;;;0.10;0.10;;;;;;;10.44;73.41;101421.63;5096245;28;20030;-78
2024/03/16 03:55:54;;;;;;;0.10;0.10;;;;;;;10.47;73.23;101419.84;5095411;28;20115;-77
2024/03/16 03:58:21;;;;;;;0.10;0.10;;;;;;;10.50;73.32;101418.94;5096669;28;20028;-77
2024/03/16 04:00:49;;;;;;;0.10;0.10;;;;;;;10.56;72.84;101418.00;5114129;28;20028;-76
2024/03/16 04:03:15;;;;;;;0.10;0.10;;;;;;;10.53;72.72;101429.50;5107480;28;20050;-75
2024/03/16 04:05:43;;;;;;;0.10;0.10;;;;;;;10.49;72.66;101441.91;5093873;28;20027;-77
2024/03/16 04:08:09;;;;;;;0.30;0.30;;;;;;;10.45;72.73;101439.28;5091068;28;20054;-75
2024/03/16 04:10:37;;;;;;;1.35;1.25;;;;;;;10.48;72.60;101449.84;5097270;28;20032;-78
2024/03/16 04:13:04;;;;;;;0.10;0.10;;;;;;;10.46;72.62;101449.88;5095585;28;20384;-78
2024/03/16 04:15:30;;;;;;;0.10;0.10;;;;;;;10.41;72.51;101453.47;5095073;28;20029;-77
2024/03/16 04:17:57;;;;;;;0.45;0.45;;;;;;;10.46;72.51;101460.47;5099353;28;20046;-77
2024/03/16 04:20:23;;;;;;;0.10;0.10;;;;;;;10.50;72.69;101466.63;5102182;28;20106;-77
2024/03/16 04:22:50;;;;;;;0.10;0.10;;;;;;;10.47;72.43;101469.31;5103111;28;20036;-77
2024/03/16 04:25:16;;;;;;;0.65;0.65;;;;;;;10.51;72.12;101465.72;5095059;28;20518;-75
2024/03/16 04:27:44;;;;;;;0.20;0.20;;;;;;;10.48;72.17;101469.28;5103940;28;20040;-75
2024/03/16 04:30:11;;;;;;;0.10;0.10;;;;;;;10.48;72.23;101473.69;5111499;28;20047;-77
2024/03/16 04:32:38;;;;;;;0.10;0.10;;;;;;;10.52;71.92;101476.31;5100855;28;20027;-77
2024/03/16 04:35:05;;;;;;;0.98;0.98;;;;;;;10.52;72.03;101483.38;5104097;28;20040;-78
2024/03/16 04:37:31;;;;;;;0.10;0.10;;;;;;;10.49;72.20;101486.94;5101381;28;20038;-76
2024/03/16 04:39:58;;;;;;;0.10;0.10;;;;;;;10.49;72.11;101496.66;5104799;28;20103;-75
2024/03/16 04:42:24;;;;;;;0.10;0.10;;;;;;;10.54;72.41;101493.97;5099214;28;20042;-77
2024/03/16 04:44:50;;;;;;;0.10;0.10;;;;;;;10.51;72.21;101497.53;5097713;28;20115;-78
2024/03/16 04:47:17;;;;;;;0.10;0.10;;;;;;;10.46;72.44;101512.59;5095954;28;20068;-76
2024/03/16 04:49:44;;;;;;;0.10;0.10;;;;;;;10.44;71.93;101522.31;5090983;28;20020;-77
2024/03/16 04:52:13;;;;;;;0.10;0.10;;;;;;;10.33;71.40;101517.94;5096791;28;20036;-78
2024/03/16 04:54:40;;;;;;;0.10;0.10;;;;;;;10.31;71.59;101529.47;5097712;28;20020;-77
2024/03/16 04:57:06;;;;;;;0.10;0.10;;;;;;;10.20;71.47;101537.47;5104011;28;20027;-78
2024/03/16 04:59:32;;;;;;;0.00;0.00;;;;;;;10.07;72.05;101546.38;5097206;28;20035;-77
2024/03/16 05:01:58;;;;;;;0.10;0.10;;;;;;;10.02;72.47;101557.03;5092859;28;20078;-77
2024/03/16 05:04:25;;;;;;;0.20;0.20;;;;;;;10.09;72.15;101560.50;5090074;28;20082;-75
2024/03/16 05:06:51;;;;;;;0.10;0.10;;;;;;;9.95;72.84;101574.69;5094971;28;20258;-76
2024/03/16 05:09:17;;;;;;;0.10;0.10;;;;;;;9.95;72.61;101576.47;5088592;28;21418;-74
2024/03/16 05:11:44;;;;;;;0.10;0.10;;;;;;;9.81;73.49;101581.84;5089692;28;20050;-77
2024/03/16 05:14:10;;;;;;;0.10;0.10;;;;;;;9.88;73.61;101588.84;5079743;28;20089;-77
2024/03/16 05:16:38;;;;;;;0.10;0.10;;;;;;;9.90;73.41;101591.50;5092595;28;20731;-77
2024/03/16 05:19:06;;;;;;;0.10;0.10;;;;;;;9.90;73.59;101592.38;5079908;28;20407;-76
2024/03/16 05:21:34;;;;;;;0.10;0.10;;;;;;;9.77;73.91;101602.16;5083157;28;20047;-76
2024/03/16 05:24:00;;;;;;;0.10;0.10;;;;;;;9.86;73.53;101606.53;5076555;28;20398;-77
2024/03/16 05:26:28;;;;;;;0.10;0.10;;;;;;;9.84;73.86;101605.63;5074152;28;20099;-76
2024/03/16 05:28:55;;;;;;;0.10;0.10;;;;;;;9.88;73.41;101610.03;5079669;28;20032;-76
2024/03/16 05:31:21;;;;;;;0.10;0.10;;;;;;;9.87;73.77;101614.44;5079146;28;20383;-76
2024/03/16 05:33:49;;;;;;;0.10;0.10;;;;;;;9.87;73.40;101622.38;5082987;28;20059;-75
2024/03/16 05:36:16;;;;;;;0.10;0.10;;;;;;;9.87;73.21;101635.63;5080582;28;20039;-77
2024/03/16 05:38:45;;;;;;;0.10;0.10;;;;;;;9.88;72.73;101633.84;5077769;28;20024;-76
2024/03/16 05:41:12;;;;;;;0.10;0.10;;;;;;;9.83;72.79;101640.94;5084595;28;20494;-77
2024/03/16 05:43:41;;;;;;;0.10;0.10;;;;;;;9.80;72.58;101649.75;5087799;28;20020;-77
2024/03/16 05:46:07;;;;;;;0.10;0.10;;;;;;;9.80;72.23;101659.47;5081807;28;20024;-77
2024/03/16 05:48:34;;;;;;;0.00;0.00;;;;;;;9.76;72.24;101663.00;5080929;28;20111;-78
2024/03/16 05:51:01;;;;;;;0.10;0.10;;;;;;;9.71;72.15;101671.84;5078362;28;20116;-78
2024/03/16 05:53:27;;;;;;;0.10;0.10;;;;;;;9.77;71.76;101680.66;5075388;28;20032;-77
2024/03/16 05:55:54;;;;;;;0.10;0.10;;;;;;;9.78;71.69;101688.59;5077068;28;20391;-77
2024/03/16 05:58:21;;;;;;;0.10;0.10;;;;;;;9.75;71.88;101691.25;5078296;28;20058;-78
2024/03/16 06:00:48;;;;;;;0.32;0.32;;;;;;;9.73;71.50;101700.94;5082711;28;20111;-78
2024/03/16 06:03:15;;;;;;;0.10;0.10;;;;;;;9.71;71.52;101708.91;5085039;28;20028;-77
2024/03/16 06:05:43;;;;;;;0.35;0.35;;;;;;;9.67;71.43;101717.75;5081435;28;20584;-78
2024/03/16 06:08:10;;;;;;;0.10;0.10;;;;;;;9.74;71.34;101717.72;5080868;28;20074;-78
2024/03/16 06:10:37;;;;;;;0.10;0.10;;;;;;;9.78;71.26;101730.06;5077816;28;20020;-77
2024/03/16 06:13:04;;;;;;;0.10;0.10;;;;;;;9.77;71.17;101723.91;5081375;28;20028;-75
2024/03/16 06:15:30;;;;;;;0.10;0.10;;;;;;;9.85;71.35;101739.75;5087623;28;20079;-75
2024/03/16 06:17:56;;;;;;;0.10;0.10;;;;;;;9.85;71.14;101739.75;5078799;28;20031;-76
2024/03/16 06:20:23;;;;;;;0.10;0.10;;;;;;;9.90;71.38;101751.19;5077660;28;20028;-75
2024/03/16 06:22:49;;;;;;;0.10;0.10;;;;;;;9.91;71.26;101752.97;5080234;28;20032;-75
2024/03/16 06:25:17;;;;;;;0.10;0.10;;;;;;;9.96;70.70;101761.78;5080656;28;20514;-76
2024/03/16 06:27:43;;;;;;;0.10;0.10;;;;;;;10.00;70.55;101755.56;5077803;28;20457;-77
2024/03/16 06:30:13;;;;;;;0.10;0.10;;;;;;;10.04;70.62;101762.66;5072300;28;20024;-77
2024/03/16 06:32:44;;;;;;;0.10;0.10;;;;;;;10.03;70.35;101775.88;5071644;28;20040;-75
2024/03/16 06:35:11;;;;;;;0.10;0.10;;;;;;;10.06;70.32;101772.34;5081664;28;20034;-75
2024/03/16 06:37:38;;;;;;;0.10;0.10;;;;;;;10.06;69.92;101785.59;5079586;28;20812;-76
2024/03/16 06:40:05;;;;;;;3.20;2.35;;;;;;;10.11;69.94;101786.47;5078117;28;20016;-75
2024/03/16 06:42:31;;;;;;;0.20;0.20;;;;;;;10.13;69.78;101792.63;5083892;28;20033;-75
2024/03/16 06:44:57;;;;;;;0.00;0.00;;;;;;;10.18;69.79;101793.47;5083164;28;20032;-75
2024/03/16 06:47:23;;;;;;;0.00;0.00;;;;;;;10.18;70.10;101798.78;5079711;28;20111;-75
2024/03/16 06:49:50;;;;;;;0.10;0.10;;;;;;;10.22;69.96;101812.88;5081647;28;20078;-75
2024/03/16 06:52:24;;;;;;;0.10;0.10;;;;;;;10.17;69.71;101812.94;5082474;28;20423;-76
2024/03/16 06:54:52;;;;;;;0.17;0.17;;;;;;;10.04;69.26;101823.53;5086420;28;20379;-77
2024/03/16 06:57:18;;;;;;;0.10;0.10;;;;;;;9.93;70.35;101835.91;5082915;28;20037;-75
2024/03/16 06:59:45;;;;;;;0.10;0.10;;;;;;;9.82;70.97;101856.19;5075844;28;20622;-77
2024/03/16 07:02:11;;;;;;;0.10;0.10;;;;;;;9.80;70.92;101866.78;5087356;28;20536;-76
2024/03/16 07:04:37;;;;;;;0.98;0.98;;;;;;;9.85;71.29;101872.09;5091115;28;20028;-76
2024/03/16 07:07:03;;;;;;;0.10;0.10;;;;;;;9.77;71.56;101874.75;5090555;28;20081;-76
2024/03/16 07:09:29;;;;;;;0.05;0.05;;;;;;;9.84;71.42;101868.59;5083576;28;20074;-75
2024/03/16 07:11:56;;;;;;;0.10;0.10;;;;;;;9.84;71.71;101876.53;5090912;28;20043;-76
2024/03/16 07:14:22;;;;;;;0.10;0.10;;;;;;;9.66;71.67;101874.75;5090487;28;20074;-76
2024/03/16 07:16:48;;;;;;;0.10;0.10;;;;;;;9.78;71.72;101872.97;5089484;28;20074;-76
2024/03/16 07:19:16;;;;;;;0.55;0.52;;;;;;;9.77;71.58;101872.09;5094134;28;20016;-76
2024/03/16 07:21:42;;;;;;;0.10;0.10;;;;;;;9.69;71.19;101876.50;5101502;28;20024;-76
2024/03/16 07:24:09;;;;;;;0.10;0.10;;;;;;;9.71;71.34;101882.69;5079200;28;20081;-77
2024/03/16 07:26:36;;;;;;;0.10;0.10;;;;;;;9.67;71.31;101887.09;5080911;28;20399;-76
2024/03/16 07:29:02;;;;;;;0.10;0.10;;;;;;;9.63;71.28;101906.50;5086244;28;20024;-77
2024/03/16 07:31:28;;;;;;;0.10;0.10;;;;;;;9.58;71.26;101902.94;5083359;28;20033;-78
2024/03/16 07:33:54;;;;;;;0.10;0.10;;;;;;;9.56;71.42;101917.97;5085918;28;20038;-77
2024/03/16 07:36:21;;;;;;;0.10;0.10;;;;;;;9.57;71.78;101922.38;5085036;28;20024;-77
2024/03/16 07:38:47;;;;;;;0.10;0.10;;;;;;;9.65;71.72;101920.59;5082965;28;20050;-77
2024/03/16 07:41:13;;;;;;;0.10;0.10;;;;;;;9.83;71.81;101924.16;5082140;28;20035;-78
2024/03/16 07:43:40;;;;;;;0.10;0.10;;;;;;;9.97;71.67;101925.03;5086086;28;20101;-77
2024/03/16 07:46:06;;;;;;;0.10;0.10;;;;;;;9.97;71.67;101935.63;5081690;28;20029;-78
2024/03/16 07:48:32;;;;;;;0.10;0.10;;;;;;;10.11;71.24;101932.97;5067416;28;20557;-78
2024/03/16 07:51:00;;;;;;;0.10;0.10;;;;;;;10.13;71.16;101944.47;5069310;28;20093;-77
2024/03/16 07:53:27;;;;;;;0.10;0.10;;;;;;;10.14;70.21;101945.31;5069957;28;20043;-78
2024/03/16 07:55:56;;;;;;;0.10;0.10;;;;;;;10.20;70.29;101948.88;5070578;28;20059;-78
2024/03/16 07:58:22;;;;;;;0.10;0.10;;;;;;;10.26;70.32;101947.97;5064463;28;20024;-75
2024/03/16 08:00:49;;;;;;;0.10;0.10;;;;;;;10.34;70.04;101956.81;5067505;28;20020;-76
2024/03/16 08:03:15;;;;;;;0.10;0.10;;;;;;;10.35;69.54;101963.88;5070472;28;20572;-78
2024/03/16 08:05:41;;;;;;;0.40;0.32;;;;;;;10.43;69.06;101968.28;5070666;28;20487;-76
2024/03/16 08:08:07;;;;;;;0.10;0.10;;;;;;;10.41;68.65;101964.78;5068600;28;20032;-76
2024/03/16 08:10:33;;;;;;;0.05;0.05;;;;;;;10.35;68.30;101970.91;5066243;28;20780;-76
2024/03/16 08:13:00;;;;;;;0.10;0.10;;;;;;;10.47;67.99;101976.25;5071484;28;20500;-76
2024/03/16 08:15:26;;;;;;;0.10;0.10;;;;;;;10.46;67.32;101976.25;5070411;28;20579;-77
2024/03/16 08:17:54;;;;;;;0.45;0.45;;;;;;;10.60;67.74;101979.75;5065805;28;20234;-76
2024/03/16 08:20:21;;;;;;;0.10;0.10;;;;;;;10.52;67.44;101989.50;5077719;28;20424;-76
2024/03/16 08:22:53;;;;;;;0.20;0.20;;;;;;;10.71;66.94;101989.47;5076677;28;20051;-77
2024/03/16 08:25:22;;;;;;;0.10;0.10;;;;;;;10.86;67.50;101984.09;5080892;28;20511;-76
2024/03/16 08:27:48;;;;;;;0.10;0.10;;;;;;;10.90;66.60;101988.50;5087126;28;20479;-77
2024/03/16 08:30:14;;;;;;;0.00;0.00;;;;;;;10.93;65.37;101991.16;5083227;28;20116;-75
2024/03/16 08:32:41;;;;;;;0.10;0.10;;;;;;;11.02;66.11;101989.38;5078729;28;20047;-75
2024/03/16 08:35:08;;;;;;;0.10;0.10;;;;;;;11.17;64.78;101994.63;5081646;28;20513;-77
2024/03/16 08:37:34;;;;;;;0.10;0.10;;;;;;;11.20;64.46;102005.19;5086291;28;20028;-77
2024/03/16 08:40:00;;;;;;;0.10;0.10;;;;;;;11.23;62.15;101997.25;5088443;28;20027;-76
2024/03/16 08:42:26;;;;;;;0.10;0.10;;;;;;;11.13;60.35;102004.34;5086021;28;20056;-77
2024/03/16 08:44:52;;;;;;;0.10;0.10;;;;;;;11.23;62.04;102005.19;5087995;28;20039;-76
2024/03/16 08:47:19;;;;;;;0.10;0.10;;;;;;;11.21;60.70;102008.75;5078919;28;20024;-77
2024/03/16 08:49:45;;;;;;;0.10;0.10;;;;;;;11.32;61.43;102018.41;5075157;28;20092;-76
2024/03/16 08:52:11;;;;;;;0.10;0.10;;;;;;;11.30;59.58;102030.81;5075864;28;20033;-76
2024/03/16 08:54:37;;;;;;;0.10;0.10;;;;;;;11.41;61.55;102040.50;5082162;28;20032;-77
2024/03/16 08:57:04;;;;;;;0.00;0.00;;;;;;;11.30;61.44;102038.78;5076195;28;20028;-77
2024/03/16 08:59:31;;;;;;;0.10;0.10;;;;;;;11.29;61.21;102042.31;5080793;28;20111;-77
2024/03/16 09:01:59;;;;;;;1.05;1.00;;;;;;;11.14;60.00;102047.66;5077925;28;20504;-76
2024/03/16 09:04:25;;;;;;;0.10;0.10;;;;;;;11.09;59.16;102041.50;5077366;28;20052;-77
2024/03/16 09:06:52;;;;;;;0.10;0.10;;;;;;;11.19;60.45;102059.16;5080610;28;20036;-76
2024/03/16 09:09:19;;;;;;;0.20;0.20;;;;;;;11.21;60.11;102059.16;5082205;28;20032;-76
2024/03/16 09:11:47;;;;;;;0.10;0.10;;;;;;;11.17;59.16;102067.09;5085374;28;20090;-75
2024/03/16 09:14:13;;;;;;;0.10;0.10;;;;;;;11.17;58.49;102068.88;5079884;28;20098;-78
2024/03/16 09:16:40;;;;;;;0.10;0.10;;;;;;;11.17;58.08;102076.84;5079923;28;20659;-76
2024/03/16 09:19:07;;;;;;;0.10;0.10;;;;;;;11.31;59.14;102080.34;5081899;28;20035;-76
2024/03/16 09:21:33;;;;;;;0.13;0.13;;;;;;;11.42;58.48;102088.25;5076572;28;20032;-75
2024/03/16 09:23:59;;;;;;;0.10;0.10;;;;;;;11.36;56.94;102100.69;5074935;28;20028;-77
2024/03/16 09:26:26;;;;;;;0.10;0.10;;;;;;;11.55;58.00;102099.72;5077782;28;20078;-75
2024/03/16 09:28:52;;;;;;;0.10;0.10;;;;;;;11.69;57.82;102102.31;5075869;28;20037;-76
2024/03/16 09:31:18;;;;;;;0.10;0.10;;;;;;;11.73;55.69;102111.16;5089712;28;20041;-76
2024/03/16 09:33:44;;;;;;;0.10;0.10;;;;;;;11.82;55.02;102108.44;5100254;28;20110;-77
2024/03/16 09:36:10;;;;;;;0.10;0.10;;;;;;;11.88;52.35;102100.44;5101311;28;20043;-77
2024/03/16 09:38:37;;;;;;;0.10;0.10;;;;;;;12.08;54.99;102110.13;5083986;28;20032;-75
2024/03/16 09:41:04;;;;;;;0.10;0.10;;;;;;;12.13;54.66;102116.28;5076394;28;20436;-76
2024/03/16 09:43:33;;;;;;;0.10;0.10;;;;;;;12.12;51.77;102118.06;5078934;28;20030;-77
2024/03/16 09:46:00;;;;;;;0.10;0.10;;;;;;;12.25;54.11;102126.84;5086022;28;20156;-76
2024/03/16 09:48:27;;;;;;;0.10;0.10;;;;;;;12.23;53.08;102123.31;5083590;28;20097;-76
2024/03/16 09:50:55;;;;;;;0.10;0.10;;;;;;;12.28;51.47;102120.63;5091517;28;20066;-77
2024/03/16 09:53:30;;;;;;;0.10;0.10;;;;;;;12.39;53.11;102131.19;5076944;28;20037;-78
2024/03/16 09:55:59;;;;;;;0.10;0.10;;;;;;;12.37;51.63;102132.97;5084949;28;20482;-77
2024/03/16 09:58:25;;;;;;;0.75;0.75;;;;;;;12.40;52.14;102138.25;5080738;28;20036;-78
2024/03/16 10:00:54;;;;;;;0.10;0.10;;;;;;;12.29;51.09;102149.84;5087303;28;20031;-78
2024/03/16 10:03:21;;;;;;;0.10;0.10;;;;;;;12.23;50.55;102144.56;5083606;28;20036;-78
2024/03/16 10:05:48;;;;;;;0.10;0.10;;;;;;;12.22;51.58;102150.75;5085510;28;20024;-77
2024/03/16 10:08:20;;;;;;;0.10;0.10;;;;;;;12.04;51.23;102159.72;5079129;28;20164;-76
2024/03/16 10:10:47;;;;;;;0.10;0.10;;;;;;;12.02;52.03;102165.94;5085672;28;20079;-78
2024/03/16 10:13:15;;;;;;;0.10;0.10;;;;;;;11.98;52.43;102160.63;5084060;28;20081;-77
2024/03/16 10:15:42;;;;;;;0.10;0.10;;;;;;;12.10;52.79;102164.09;5080373;28;20063;-77
2024/03/16 10:18:11;;;;;;;0.10;0.10;;;;;;;12.07;51.38;102169.47;5083312;28;20073;-78
2024/03/16 10:20:37;;;;;;;0.10;0.10;;;;;;;12.16;51.72;102172.03;5081887;28;20085;-78
2024/03/16 10:23:10;;;;;;;0.10;0.10;;;;;;;12.24;51.40;102178.22;5082595;28;20047;-77
2024/03/16 10:25:37;;;;;;;0.00;0.00;;;;;;;12.19;51.29;102185.34;5084423;28;20108;-76
2024/03/16 10:28:07;;;;;;;0.10;0.10;;;;;;;12.25;50.06;102181.75;5092288;28;20024;-77
2024/03/16 10:30:35;;;;;;;0.10;0.10;;;;;;;12.24;49.58;102182.66;5092652;28;20146;-76
2024/03/16 10:33:02;;;;;;;0.10;0.10;;;;;;;12.40;49.73;102194.06;5088597;28;20046;-74
2024/03/16 10:35:33;;;;;;;0.10;0.10;;;;;;;12.41;49.42;102185.19;5078193;28;20682;-76
2024/03/16 10:38:00;;;;;;;0.10;0.10;;;;;;;12.42;48.08;102202.91;5083787;28;20393;-75
2024/03/16 10:40:28;;;;;;;0.10;0.10;;;;;;;12.44;48.53;102217.09;5097338;28;20017;-76
2024/03/16 10:42:56;;;;;;;0.10;0.10;;;;;;;12.51;48.66;102218.84;5089593;28;20020;-74
2024/03/16 10:45:23;;;;;;;0.10;0.10;;;;;;;12.56;47.98;102211.72;5082183;28;20372;-76
2024/03/16 10:50:29;;;;;;;0.20;0.20;;;;;;;12.70;50.69;102218.72;5110122;27;20095;-77
2024/03/16 10:52:56;;;;;;;0.10;0.10;;;;;;;12.78;51.41;102217.78;5098910;28;20028;-77
2024/03/16 10:55:24;;;;;;;0.10;0.10;;;;;;;12.84;51.78;102214.16;5099504;28;20566;-77
2024/03/16 10:57:52;;;;;;;0.13;0.13;;;;;;;12.87;51.04;102214.16;5096646;28;20027;-77
2024/03/16 11:03:01;;;;;;;0.17;0.17;;;;;;;12.80;47.49;102225.72;5152259;27;243826;-76
2024/03/16 11:05:47;;;;;;;0.10;0.10;;;;;;;12.94;48.09;102222.97;5134825;27;20139;-77
2024/03/16 11:10:52;;;;;;;0.10;0.10;;;;;;;13.11;49.24;102226.38;5142310;27;20144;-77
2024/03/16 11:13:23;;;;;;;0.10;0.10;;;;;;;13.20;48.72;102236.03;5099029;28;20075;-77
2024/03/16 11:15:51;;;;;;;0.10;0.10;;;;;;;13.17;48.36;102235.19;5088979;28;20032;-77
2024/03/16 11:20:57;;;;;;;0.10;0.10;;;;;;;13.15;48.89;102243.19;5141541;27;20151;-76
2024/03/16 11:29:09;;;;;;;0.10;0.10;;;;;;;13.07;49.50;102239.69;5119727;27;20728;-78
2024/03/16 11:31:39;;;;;;;0.10;0.10;;;;;;;13.09;48.98;102243.25;5100158;28;20036;-76
2024/03/16 11:34:14;;;;;;;0.05;0.05;;;;;;;13.05;49.05;102246.84;5100510;28;20020;-76
2024/03/16 11:36:48;;;;;;;0.10;0.10;;;;;;;13.03;50.00;102248.59;5096210;28;20081;-76
2024/03/16 11:39:17;;;;;;;0.10;0.10;;;;;;;13.09;48.87;102264.53;5101327;28;20024;-76
2024/03/16 11:41:45;;;;;;;0.00;0.00;;;;;;;13.20;49.03;102267.13;5105709;28;20028;-76
2024/03/16 11:46:49;;;;;;;0.10;0.10;;;;;;;13.16;48.72;102270.69;5129190;27;20370;-76